Time;durP1;ratioP1;P1;durP2;ratioP2;P2;SDS_P1;SDS_P2;PMS_P1;PMS_P2;Temp;Humidity;BMP_temperature;BMP_pressure;BME280_temperature;BME280_humidity;BME280_pressure;Samples;Min_cycle;Max_cycle;Signal;HPM_P1;HPM_P2
2022/03/29 00:00:57;;;;;;;31.77;13.97;;;8.80;99.90;;;;;;4995890;28;20328;-68
2022/03/29 00:03:24;;;;;;;34.90;14.27;;;8.80;99.90;;;;;;5004725;28;20297;-69
2022/03/29 00:05:51;;;;;;;31.70;13.97;;;8.80;99.90;;;;;;5009356;28;20274;-68
2022/03/29 00:08:18;;;;;;;34.47;15.27;;;8.70;99.90;;;;;;5006477;28;20227;-68
2022/03/29 00:10:45;;;;;;;32.00;14.93;;;8.70;99.90;;;;;;5010063;28;20214;-66
2022/03/29 00:13:13;;;;;;;29.53;13.63;;;8.70;99.90;;;;;;4995188;28;20267;-68
2022/03/29 00:15:41;;;;;;;32.57;13.53;;;8.70;99.90;;;;;;5002737;28;20225;-67
2022/03/29 00:18:08;;;;;;;29.13;14.17;;;8.70;99.90;;;;;;5015325;28;20234;-70
2022/03/29 00:20:35;;;;;;;30.33;14.33;;;8.70;99.90;;;;;;5001465;28;20206;-67
2022/03/29 00:23:02;;;;;;;30.30;14.77;;;8.70;99.90;;;;;;5013107;28;20206;-67
2022/03/29 00:25:29;;;;;;;29.50;15.13;;;8.70;99.90;;;;;;5015101;28;20233;-67
2022/03/29 00:27:56;;;;;;;31.60;14.10;;;8.70;99.90;;;;;;5019070;28;20279;-67
2022/03/29 00:30:23;;;;;;;29.30;14.23;;;8.70;99.90;;;;;;5014461;28;20230;-67
2022/03/29 00:32:51;;;;;;;33.80;15.37;;;8.70;99.90;;;;;;5012509;28;20251;-67
2022/03/29 00:35:18;;;;;;;31.63;14.30;;;8.70;99.90;;;;;;5025101;28;20206;-67
2022/03/29 00:37:45;;;;;;;30.10;13.90;;;8.70;99.90;;;;;;5009691;28;20234;-67
2022/03/29 00:40:14;;;;;;;29.80;14.97;;;8.70;99.90;;;;;;5011737;28;20207;-67
2022/03/29 00:42:41;;;;;;;27.07;13.20;;;8.70;99.90;;;;;;4999065;28;20218;-67
2022/03/29 00:45:09;;;;;;;36.20;15.17;;;8.70;99.90;;;;;;5008569;28;20215;-68
2022/03/29 00:47:36;;;;;;;30.90;14.10;;;8.80;99.90;;;;;;5017309;28;20261;-68
2022/03/29 00:50:05;;;;;;;27.80;14.03;;;8.70;99.90;;;;;;5020010;28;20240;-68
2022/03/29 00:52:32;;;;;;;31.63;15.37;;;8.70;99.90;;;;;;5029966;23;20963;-75
2022/03/29 00:55:00;;;;;;;29.20;14.30;;;8.80;99.90;;;;;;5041790;28;20234;-76
2022/03/29 00:57:29;;;;;;;25.17;14.20;;;8.80;99.90;;;;;;5043646;28;20456;-76
2022/03/29 00:59:56;;;;;;;30.77;15.57;;;8.80;99.90;;;;;;5045671;28;20304;-75
2022/03/29 01:02:23;;;;;;;27.27;14.10;;;8.80;99.90;;;;;;5037298;28;20315;-75
2022/03/29 01:04:50;;;;;;;26.37;13.90;;;8.80;99.90;;;;;;5040139;28;20317;-75
2022/03/29 01:07:18;;;;;;;25.97;14.80;;;8.80;99.90;;;;;;5039996;28;20226;-75
2022/03/29 01:09:45;;;;;;;29.07;15.60;;;8.80;99.90;;;;;;5045388;28;20567;-75
2022/03/29 01:12:12;;;;;;;31.33;15.43;;;8.80;99.90;;;;;;5043178;28;20313;-74
2022/03/29 01:14:40;;;;;;;32.23;15.60;;;8.80;99.90;;;;;;5040071;28;20217;-75
2022/03/29 01:19:54;;;;;;;28.27;14.90;;;8.80;99.90;;;;;;5047178;28;20216;-75
2022/03/29 01:22:23;;;;;;;27.73;15.03;;;8.80;99.90;;;;;;5046809;28;20212;-76
2022/03/29 01:24:51;;;;;;;31.80;16.10;;;8.80;99.90;;;;;;5052050;28;20216;-75
2022/03/29 01:27:19;;;;;;;29.73;15.77;;;8.80;99.90;;;;;;5038732;28;20214;-76
2022/03/29 01:29:46;;;;;;;31.63;14.43;;;8.80;99.90;;;;;;5041027;28;20229;-74
2022/03/29 01:32:13;;;;;;;28.83;15.53;;;8.80;99.90;;;;;;5057243;28;20204;-75
2022/03/29 01:34:43;;;;;;;26.23;14.43;;;8.80;99.90;;;;;;5049554;28;20222;-75
2022/03/29 01:37:10;;;;;;;26.83;15.03;;;8.80;99.90;;;;;;5037696;28;20212;-75
2022/03/29 01:39:39;;;;;;;32.13;15.20;;;8.90;99.90;;;;;;5052257;28;20213;-74
2022/03/29 01:42:07;;;;;;;28.70;15.37;;;8.90;99.90;;;;;;5048764;28;20299;-75
2022/03/29 01:44:34;;;;;;;31.27;16.10;;;8.90;99.90;;;;;;5041987;28;20654;-75
2022/03/29 01:47:01;;;;;;;31.40;15.60;;;8.90;99.90;;;;;;5052803;28;20285;-75
2022/03/29 01:49:28;;;;;;;29.03;16.10;;;10.10;99.90;;;;;;5043345;28;20309;-75
2022/03/29 01:51:56;;;;;;;29.20;16.13;;;9.00;99.90;;;;;;5039019;28;20224;-76
2022/03/29 01:54:23;;;;;;;31.30;17.00;;;9.00;99.90;;;;;;5042348;28;20248;-74
2022/03/29 01:56:52;;;;;;;33.20;17.37;;;8.90;99.90;;;;;;5040503;28;20585;-74
2022/03/29 01:59:19;;;;;;;28.00;15.47;;;9.00;99.90;;;;;;5043778;28;20356;-75
2022/03/29 02:01:47;;;;;;;32.00;15.50;;;9.00;99.90;;;;;;5046456;28;20232;-75
2022/03/29 02:04:14;;;;;;;30.73;15.57;;;9.00;99.90;;;;;;5036691;28;20301;-75
2022/03/29 02:06:42;;;;;;;27.37;14.63;;;9.00;99.90;;;;;;5040430;28;20210;-75
2022/03/29 02:09:10;;;;;;;29.07;15.63;;;9.00;99.90;;;;;;5045895;28;20243;-74
2022/03/29 02:11:41;;;;;;;31.17;17.10;;;9.00;99.90;;;;;;5046168;28;20279;-74
2022/03/29 02:14:10;;;;;;;31.83;16.33;;;9.00;99.90;;;;;;5057234;28;20319;-74
2022/03/29 02:16:37;;;;;;;33.27;16.03;;;9.00;99.90;;;;;;5035628;28;20209;-75
2022/03/29 02:19:05;;;;;;;27.37;16.07;;;8.90;99.90;;;;;;5045322;28;20213;-76
2022/03/29 02:21:32;;;;;;;33.37;16.87;;;8.90;99.90;;;;;;5045885;28;20209;-75
2022/03/29 02:23:59;;;;;;;28.17;15.77;;;8.90;99.90;;;;;;5055553;28;20239;-76
2022/03/29 02:26:25;;;;;;;30.07;16.73;;;8.90;99.90;;;;;;5048832;28;20324;-76
2022/03/29 02:28:52;;;;;;;33.87;17.27;;;8.90;99.90;;;;;;5041876;28;20212;-76
2022/03/29 02:31:20;;;;;;;28.67;16.43;;;8.80;99.90;;;;;;5046316;28;20224;-76
2022/03/29 02:33:47;;;;;;;30.37;17.07;;;8.90;99.90;;;;;;5043925;28;20243;-76
2022/03/29 02:36:16;;;;;;;29.00;16.50;;;8.80;99.90;;;;;;5047763;28;20209;-76
2022/03/29 02:38:43;;;;;;;30.37;17.13;;;8.90;99.90;;;;;;5052218;28;20551;-77
2022/03/29 02:41:10;;;;;;;32.33;17.70;;;8.90;99.90;;;;;;5047560;28;20574;-77
2022/03/29 02:43:37;;;;;;;33.83;16.83;;;8.80;99.90;;;;;;5046375;28;20217;-78
2022/03/29 02:46:04;;;;;;;33.97;18.53;;;8.80;99.90;;;;;;5039989;28;20217;-76
2022/03/29 02:48:33;;;;;;;31.80;17.67;;;8.80;99.90;;;;;;5050080;28;20270;-79
2022/03/29 02:51:01;;;;;;;31.50;17.33;;;8.80;99.90;;;;;;5047942;28;20232;-77
2022/03/29 02:53:28;;;;;;;32.30;16.80;;;8.80;99.90;;;;;;5045066;28;20244;-77
2022/03/29 02:55:55;;;;;;;33.00;17.30;;;8.90;99.90;;;;;;5054954;28;20220;-77
2022/03/29 02:58:23;;;;;;;32.27;17.67;;;8.80;99.90;;;;;;5044913;28;20210;-79
2022/03/29 03:00:51;;;;;;;31.13;17.03;;;8.80;99.90;;;;;;5044249;28;20286;-76
2022/03/29 03:03:18;;;;;;;34.70;18.50;;;8.90;99.90;;;;;;5044363;28;20229;-76
2022/03/29 03:05:47;;;;;;;30.63;17.90;;;8.90;99.90;;;;;;5049430;28;20266;-76
2022/03/29 03:08:14;;;;;;;36.17;19.07;;;8.90;99.90;;;;;;5042578;28;20688;-76
2022/03/29 03:10:41;;;;;;;34.10;18.13;;;8.90;99.90;;;;;;5040749;28;20342;-77
2022/03/29 03:13:08;;;;;;;32.47;18.67;;;8.90;99.90;;;;;;5045058;28;20239;-76
2022/03/29 03:15:34;;;;;;;36.40;19.13;;;8.90;99.90;;;;;;5044738;28;20213;-76
2022/03/29 03:18:02;;;;;;;37.77;19.50;;;8.90;99.90;;;;;;5027874;28;20689;-75
2022/03/29 03:20:30;;;;;;;33.50;18.93;;;8.90;99.90;;;;;;5047996;28;20205;-76
2022/03/29 03:22:58;;;;;;;36.53;19.17;;;8.90;99.90;;;;;;5047774;28;20322;-75
2022/03/29 03:25:26;;;;;;;32.97;18.20;;;8.90;99.90;;;;;;5050947;28;20260;-74
2022/03/29 03:27:52;;;;;;;31.87;19.50;;;8.80;99.90;;;;;;5044800;28;20684;-75
2022/03/29 03:30:19;;;;;;;34.90;20.27;;;8.80;99.90;;;;;;5045231;28;20287;-75
2022/03/29 03:32:48;;;;;;;33.00;18.93;;;8.90;99.90;;;;;;5048789;28;20237;-75
2022/03/29 03:35:15;;;;;;;32.83;19.40;;;8.90;99.90;;;;;;5053404;28;20209;-74
2022/03/29 03:37:43;;;;;;;31.67;19.23;;;8.90;99.90;;;;;;5050251;28;20213;-75
2022/03/29 03:40:12;;;;;;;32.07;18.73;;;8.90;99.90;;;;;;5046044;28;20242;-75
2022/03/29 03:42:40;;;;;;;38.30;21.97;;;8.80;99.90;;;;;;5048486;28;20510;-75
2022/03/29 03:45:08;;;;;;;37.33;20.90;;;8.80;99.90;;;;;;5047873;28;20216;-74
2022/03/29 03:47:36;;;;;;;35.43;20.73;;;8.90;99.90;;;;;;5041789;28;20219;-74
2022/03/29 03:50:03;;;;;;;33.47;19.53;;;8.90;99.90;;;;;;5045821;28;20233;-74
2022/03/29 03:52:30;;;;;;;42.63;20.97;;;8.90;99.90;;;;;;5044779;28;20289;-74
2022/03/29 03:54:57;;;;;;;37.03;20.63;;;8.90;99.90;;;;;;5039639;28;20202;-75
2022/03/29 03:57:25;;;;;;;34.80;21.37;;;8.90;99.90;;;;;;5044211;28;20606;-75
2022/03/29 03:59:55;;;;;;;34.47;20.73;;;8.80;99.90;;;;;;5048407;28;20197;-74
2022/03/29 04:02:22;;;;;;;40.23;21.53;;;8.80;99.90;;;;;;5062145;28;20629;-74
2022/03/29 04:04:49;;;;;;;39.13;21.67;;;8.80;99.90;;;;;;5045985;28;20650;-75
2022/03/29 04:07:16;;;;;;;39.87;21.77;;;8.80;99.90;;;;;;5047350;28;20349;-75
2022/03/29 04:09:43;;;;;;;38.20;20.83;;;8.80;99.90;;;;;;5056919;28;20217;-75
2022/03/29 04:12:10;;;;;;;40.10;22.87;;;8.90;99.90;;;;;;5037294;28;20623;-75
2022/03/29 04:14:39;;;;;;;41.57;22.27;;;8.90;99.90;;;;;;5045762;28;20361;-75
2022/03/29 04:17:08;;;;;;;39.00;22.10;;;8.90;99.90;;;;;;5049789;28;20207;-75
2022/03/29 04:19:35;;;;;;;41.13;22.40;;;8.90;99.90;;;;;;5053281;28;20269;-75
2022/03/29 04:22:01;;;;;;;39.33;21.63;;;8.90;99.90;;;;;;5060888;28;20217;-75
2022/03/29 04:24:29;;;;;;;35.80;21.23;;;8.80;99.90;;;;;;5046421;28;20312;-77
2022/03/29 04:26:56;;;;;;;40.10;21.80;;;8.80;99.90;;;;;;5060593;28;20204;-76
2022/03/29 04:29:23;;;;;;;39.77;21.63;;;8.80;99.90;;;;;;5059042;28;20685;-75
2022/03/29 04:31:55;;;;;;;37.57;22.50;;;8.80;99.90;;;;;;5065964;28;20272;-76
2022/03/29 04:34:22;;;;;;;38.23;21.67;;;8.80;99.90;;;;;;5056820;28;20315;-76
2022/03/29 04:36:49;;;;;;;41.20;22.23;;;8.80;99.90;;;;;;5056255;28;20293;-76
2022/03/29 04:39:16;;;;;;;36.83;20.30;;;8.80;99.90;;;;;;5055022;28;20209;-77
2022/03/29 04:41:43;;;;;;;38.83;21.50;;;8.80;99.90;;;;;;5058308;28;20696;-76
2022/03/29 04:44:10;;;;;;;37.17;21.10;;;8.70;99.90;;;;;;5047231;28;20558;-78
2022/03/29 04:46:37;;;;;;;35.90;22.87;;;8.70;99.90;;;;;;5073515;28;20209;-80
2022/03/29 04:49:08;;;;;;;37.27;22.00;;;;;;;;;;5060544;28;20242;-79
2022/03/29 04:51:35;;;;;;;35.77;21.53;;;8.70;99.90;;;;;;5060407;28;20236;-78
2022/03/29 04:54:02;;;;;;;43.03;22.60;;;8.70;99.90;;;;;;5062055;28;20236;-76
2022/03/29 04:56:30;;;;;;;39.30;23.60;;;8.60;99.90;;;;;;5068584;28;20201;-80
2022/03/29 04:58:57;;;;;;;36.13;21.83;;;8.60;99.90;;;;;;5057610;28;20239;-76
2022/03/29 05:01:24;;;;;;;39.80;21.53;;;8.70;99.90;;;;;;5045158;28;20198;-76
2022/03/29 05:03:51;;;;;;;36.10;23.23;;;8.60;99.90;;;;;;5039792;28;20245;-77
2022/03/29 05:06:20;;;;;;;45.27;23.40;;;8.50;99.90;;;;;;5058017;28;20197;-78
2022/03/29 05:08:48;;;;;;;40.77;23.30;;;8.50;99.90;;;;;;5070083;28;20790;-78
2022/03/29 05:11:15;;;;;;;40.10;23.07;;;8.50;99.90;;;;;;5057360;28;20276;-76
2022/03/29 05:13:42;;;;;;;42.20;22.97;;;8.50;99.90;;;;;;5048946;28;20605;-76
2022/03/29 05:16:09;;;;;;;40.77;24.57;;;8.40;99.90;;;;;;5056589;28;20235;-75
2022/03/29 05:18:36;;;;;;;36.27;22.63;;;8.40;99.90;;;;;;5060337;28;20220;-77
2022/03/29 05:21:04;;;;;;;46.13;24.90;;;8.40;99.90;;;;;;5052012;28;20229;-78
2022/03/29 05:23:32;;;;;;;39.60;22.90;;;8.40;99.90;;;;;;5057013;28;20237;-75
2022/03/29 05:25:59;;;;;;;45.83;24.20;;;8.40;99.90;;;;;;5051935;28;20976;-78
2022/03/29 05:28:26;;;;;;;47.30;26.37;;;8.40;99.90;;;;;;5044974;28;20205;-76
2022/03/29 05:30:53;;;;;;;43.13;23.50;;;8.40;99.90;;;;;;5043205;28;20232;-77
2022/03/29 05:33:19;;;;;;;57.33;27.27;;;8.30;99.90;;;;;;5052157;28;20740;-77
2022/03/29 05:35:47;;;;;;;42.00;24.33;;;8.30;99.90;;;;;;5044463;28;20272;-77
2022/03/29 05:38:14;;;;;;;46.13;25.07;;;8.40;99.90;;;;;;5046686;28;20451;-76
2022/03/29 05:40:42;;;;;;;39.83;25.27;;;8.40;99.90;;;;;;5041542;28;20259;-77
2022/03/29 05:43:11;;;;;;;43.80;25.57;;;8.40;99.90;;;;;;5061805;28;20300;-76
2022/03/29 05:45:39;;;;;;;42.17;26.00;;;9.10;99.90;;;;;;5036412;28;20216;-77
2022/03/29 05:50:52;;;;;;;44.90;26.93;;;8.50;99.90;;;;;;5038537;28;20343;-75
2022/03/29 05:53:19;;;;;;;44.57;25.87;;;8.50;99.90;;;;;;5046290;28;20241;-75
2022/03/29 05:55:48;;;;;;;43.17;25.33;;;8.60;99.90;;;;;;5049079;28;20308;-77
2022/03/29 05:58:17;;;;;;;44.63;25.80;;;9.10;99.90;;;;;;5050805;28;20209;-75
2022/03/29 06:00:44;;;;;;;42.93;25.27;;;8.60;99.90;;;;;;5037280;28;20209;-75
2022/03/29 06:03:11;;;;;;;39.43;24.07;;;8.60;99.90;;;;;;5042869;28;20236;-75
2022/03/29 06:05:42;;;;;;;42.10;25.50;;;8.60;99.90;;;;;;5041418;28;20304;-76
2022/03/29 06:08:09;;;;;;;43.53;25.43;;;8.70;99.90;;;;;;5046514;28;20346;-75
2022/03/29 06:10:37;;;;;;;45.53;26.50;;;8.70;99.90;;;;;;5041856;28;20246;-75
2022/03/29 06:13:08;;;;;;;39.30;24.23;;;8.80;99.90;;;;;;5045709;28;20233;-75
2022/03/29 06:15:36;;;;;;;43.23;25.63;;;8.90;99.90;;;;;;5042173;28;20220;-75
2022/03/29 06:18:03;;;;;;;40.47;24.77;;;8.90;99.90;;;;;;5038684;28;20202;-75
2022/03/29 06:20:30;;;;;;;42.10;26.37;;;9.10;99.90;;;;;;5049038;28;20209;-76
2022/03/29 06:22:57;;;;;;;44.17;25.43;;;9.20;99.90;;;;;;5045927;28;20519;-75
2022/03/29 06:25:24;;;;;;;46.60;25.77;;;9.30;99.90;;;;;;5041012;28;20305;-76
2022/03/29 06:27:51;;;;;;;42.87;24.67;;;9.50;99.90;;;;;;5051452;28;20257;-76
2022/03/29 06:30:19;;;;;;;39.07;25.13;;;9.60;99.90;;;;;;5050235;28;20212;-75
2022/03/29 06:32:47;;;;;;;47.13;27.73;;;9.70;99.90;;;;;;5041746;28;20314;-75
2022/03/29 06:35:14;;;;;;;43.37;26.00;;;9.80;99.90;;;;;;5051230;28;20216;-76
2022/03/29 06:37:41;;;;;;;41.40;25.90;;;9.90;99.90;;;;;;5046251;28;20266;-76
2022/03/29 06:40:10;;;;;;;40.33;26.10;;;10.00;99.90;;;;;;5036104;28;20220;-76
2022/03/29 06:42:37;;;;;;;47.40;27.73;;;10.10;99.90;;;;;;5053828;28;20262;-76
2022/03/29 06:45:04;;;;;;;47.07;27.67;;;10.00;99.90;;;;;;5056069;28;20212;-76
2022/03/29 06:47:33;;;;;;;42.53;27.20;;;10.00;99.90;;;;;;5046454;28;20220;-76
2022/03/29 06:50:00;;;;;;;42.73;26.97;;;9.90;99.90;;;;;;5048297;28;20828;-76
2022/03/29 06:52:29;;;;;;;53.33;24.17;;;9.90;99.90;;;;;;5045817;28;20229;-75
2022/03/29 06:54:56;;;;;;;45.63;26.97;;;9.90;99.90;;;;;;5039938;28;20285;-76
2022/03/29 06:57:23;;;;;;;48.87;28.07;;;10.00;99.90;;;;;;5047859;28;20667;-76
2022/03/29 06:59:49;;;;;;;45.80;27.33;;;10.20;99.90;;;;;;5041875;28;20221;-76
2022/03/29 07:02:16;;;;;;;47.33;28.03;;;10.40;99.90;;;;;;5045045;28;20201;-76
2022/03/29 07:04:44;;;;;;;53.63;29.20;;;10.50;99.90;;;;;;5045910;28;20255;-76
2022/03/29 07:07:11;;;;;;;52.50;30.47;;;10.60;99.90;;;;;;5044439;28;20208;-76
2022/03/29 07:12:23;;;;;;;48.70;28.53;;;11.10;99.90;;;;;;5047788;28;20233;-76
2022/03/29 07:14:50;;;;;;;49.13;29.27;;;11.10;99.90;;;;;;5038492;28;20728;-76
2022/03/29 07:17:17;;;;;;;52.00;30.07;;;11.40;99.90;;;;;;5040599;28;20211;-76
2022/03/29 07:19:46;;;;;;;48.47;29.23;;;11.80;99.90;;;;;;5049936;28;20327;-77
2022/03/29 07:22:12;;;;;;;62.07;31.20;;;12.50;99.90;;;;;;5051426;28;20283;-76
2022/03/29 07:24:39;;;;;;;52.17;29.47;;;12.40;99.90;;;;;;5051930;28;20208;-76
2022/03/29 07:27:07;;;;;;;52.57;31.53;;;12.80;99.90;;;;;;5045854;28;20239;-77
2022/03/29 07:29:34;;;;;;;52.63;32.90;;;13.00;99.90;;;;;;5058255;28;20232;-76
2022/03/29 07:32:01;;;;;;;61.57;34.80;;;13.20;99.90;;;;;;5056993;28;20243;-77
2022/03/29 07:34:29;;;;;;;59.43;33.60;;;13.40;99.90;;;;;;5053790;28;20725;-76
2022/03/29 07:36:58;;;;;;;57.00;34.07;;;13.50;99.90;;;;;;5057977;28;20245;-76
2022/03/29 07:39:24;;;;;;;56.90;33.07;;;13.70;99.90;;;;;;5062900;28;20200;-76
2022/03/29 07:41:51;;;;;;;60.23;32.37;;;13.80;99.90;;;;;;5053948;28;20231;-77
2022/03/29 07:44:18;;;;;;;62.30;35.03;;;13.90;99.90;;;;;;5049219;28;20228;-76
2022/03/29 07:46:45;;;;;;;65.37;34.10;;;13.90;99.90;;;;;;5049866;28;20213;-75
2022/03/29 07:49:12;;;;;;;64.33;35.97;;;14.00;99.90;;;;;;5041014;28;20212;-76
2022/03/29 07:51:39;;;;;;;58.93;30.67;;;14.00;99.90;;;;;;5043238;28;20229;-76
2022/03/29 07:54:07;;;;;;;60.60;35.80;;;14.00;99.90;;;;;;5045959;28;20236;-76
2022/03/29 07:56:34;;;;;;;65.47;36.73;;;13.90;99.90;;;;;;5048581;28;20206;-76
2022/03/29 07:59:01;;;;;;;60.73;35.20;;;14.10;99.90;;;;;;5053479;28;20212;-75
2022/03/29 08:01:29;;;;;;;63.33;35.27;;;14.20;99.90;;;;;;5051138;28;20466;-76
2022/03/29 08:03:56;;;;;;;60.80;33.93;;;14.50;99.90;;;;;;5048946;28;20302;-77
2022/03/29 08:06:23;;;;;;;58.87;34.67;;;14.80;99.90;;;;;;5058382;28;20563;-76
2022/03/29 08:08:50;;;;;;;59.67;34.50;;;14.90;99.90;;;;;;5049681;28;20218;-76
2022/03/29 08:11:19;;;;;;;64.90;35.77;;;14.90;99.90;;;;;;5043928;28;20270;-75
2022/03/29 08:13:46;;;;;;;61.67;34.83;;;14.80;99.90;;;;;;5041796;28;20258;-76
2022/03/29 08:16:13;;;;;;;61.30;33.70;;;14.50;99.90;;;;;;5045508;28;20239;-76
2022/03/29 08:18:40;;;;;;;61.43;34.47;;;14.40;99.90;;;;;;5040991;28;20217;-75
2022/03/29 08:21:48;;;;;;;67.27;37.33;;;14.40;99.90;;;;;;5049722;28;20222;-77
2022/03/29 08:23:55;;;;;;;63.10;35.90;;;14.30;99.90;;;;;;5040143;28;20708;-76
2022/03/29 08:26:24;;;;;;;55.97;32.67;;;14.30;99.90;;;;;;5043036;28;20573;-76
2022/03/29 08:28:50;;;;;;;65.27;36.37;;;14.20;99.90;;;;;;5035864;28;20205;-76
2022/03/29 08:31:17;;;;;;;60.67;33.30;;;14.00;99.90;;;;;;5048112;28;20217;-76
2022/03/29 08:33:44;;;;;;;62.50;32.90;;;13.90;99.90;;;;;;5042156;28;20241;-76
2022/03/29 08:36:11;;;;;;;63.50;32.90;;;13.50;99.90;;;;;;5043281;28;20217;-76
2022/03/29 08:38:38;;;;;;;61.53;34.73;;;13.30;99.90;;;;;;5060684;28;20262;-77
2022/03/29 08:41:07;;;;;;;58.40;35.63;;;13.20;99.90;;;;;;5044116;28;20209;-76
2022/03/29 08:43:35;;;;;;;49.87;27.53;;;13.10;99.90;;;;;;5041751;28;20222;-76
2022/03/29 08:46:02;;;;;;;62.83;32.73;;;13.00;99.90;;;;;;5047374;28;20314;-75
2022/03/29 08:48:31;;;;;;;62.80;34.37;;;12.70;99.90;;;;;;5044276;28;20684;-76
2022/03/29 08:50:59;;;;;;;70.17;34.23;;;12.60;99.90;;;;;;5039954;28;20216;-76
2022/03/29 08:53:28;;;;;;;61.57;31.50;;;12.50;99.90;;;;;;5054542;28;20386;-75
2022/03/29 08:55:55;;;;;;;65.23;36.23;;;12.40;99.90;;;;;;5058443;28;20665;-74
2022/03/29 08:58:23;;;;;;;66.47;33.07;;;12.40;99.90;;;;;;5037666;28;20217;-74
2022/03/29 09:00:53;;;;;;;69.23;33.27;;;12.20;99.90;;;;;;5054363;28;20223;-75
2022/03/29 09:03:20;;;;;;;68.17;34.43;;;12.00;99.90;;;;;;5047723;28;20285;-75
2022/03/29 09:05:49;;;;;;;48.57;26.23;;;11.80;99.90;;;;;;5050769;28;20222;-74
2022/03/29 09:08:16;;;;;;;72.93;37.10;;;11.70;99.90;;;;;;5051833;28;20257;-74
2022/03/29 09:10:45;;;;;;;77.60;35.27;;;11.60;99.90;;;;;;5043432;28;20534;-74
2022/03/29 09:13:20;;;;;;;70.83;36.07;;;11.50;99.90;;;;;;5039380;28;20231;-75
2022/03/29 09:15:47;;;;;;;73.13;34.67;;;11.50;99.90;;;;;;5060515;28;20222;-75
2022/03/29 09:18:16;;;;;;;43.90;20.83;;;11.50;99.90;;;;;;5045086;28;20267;-74
2022/03/29 09:20:44;;;;;;;69.73;34.77;;;11.50;99.90;;;;;;5041479;28;20237;-75
2022/03/29 09:23:15;;;;;;;74.57;37.27;;;11.50;99.90;;;;;;5041386;28;20313;-74
2022/03/29 09:25:47;;;;;;;74.60;34.10;;;11.40;99.90;;;;;;5042996;28;20288;-74
2022/03/29 09:28:16;;;;;;;75.63;36.03;;;11.40;99.90;;;;;;5047327;28;20625;-75
2022/03/29 09:30:44;;;;;;;74.87;34.37;;;11.40;99.90;;;;;;5037542;28;20215;-78
2022/03/29 09:33:13;;;;;;;82.10;39.57;;;11.40;99.90;;;;;;5043363;28;20256;-76
2022/03/29 09:35:57;;;;;;;77.53;37.43;;;11.50;99.90;;;;;;5055688;28;20206;-76
2022/03/29 09:38:27;;;;;;;83.87;36.57;;;11.50;99.90;;;;;;5050871;28;20481;-76
2022/03/29 09:40:55;;;;;;;89.93;39.27;;;11.60;99.90;;;;;;5066483;28;20229;-76
2022/03/29 09:43:40;;;;;;;86.80;37.10;;;11.60;99.90;;;;;;5037966;28;20756;-76
2022/03/29 09:46:07;;;;;;;81.17;37.93;;;11.60;99.90;;;;;;5050861;28;20222;-77
2022/03/29 09:48:37;;;;;;;76.10;36.00;;;11.60;99.90;;;;;;5041375;28;20364;-76
2022/03/29 09:51:21;;;;;;;63.73;27.00;;;11.60;99.90;;;;;;5055721;28;20211;-75
2022/03/29 09:53:51;;;;;;;77.40;36.37;;;11.70;99.90;;;;;;5047611;28;20300;-78
2022/03/29 09:56:24;;;;;;;67.07;33.27;;;11.90;99.90;;;;;;5038712;28;20238;-76
2022/03/29 09:59:06;;;;;;;72.37;34.13;;;11.90;99.90;;;;;;5050487;28;20212;-76
2022/03/29 10:01:46;;;;;;;66.57;34.53;;;11.90;99.90;;;;;;5046168;28;20211;-77
2022/03/29 10:04:15;;;;;;;65.37;34.33;;;11.90;99.90;;;;;;5047726;28;21115;-76
2022/03/29 10:06:44;;;;;;;63.40;31.20;;;11.90;99.90;;;;;;5041053;28;20220;-75
2022/03/29 10:09:29;;;;;;;58.50;30.27;;;12.00;99.90;;;;;;5050085;28;20200;-76
2022/03/29 10:11:59;;;;;;;70.47;33.70;;;12.10;99.90;;;;;;5040964;28;20307;-77
2022/03/29 10:14:27;;;;;;;73.50;35.37;;;12.20;99.90;;;;;;5037462;28;20266;-76
2022/03/29 10:16:55;;;;;;;64.97;31.20;;;12.30;99.90;;;;;;5052698;28;20594;-76
2022/03/29 10:19:22;;;;;;;63.27;34.43;;;12.50;99.90;;;;;;5056711;28;20213;-77
2022/03/29 10:21:53;;;;;;;54.90;27.13;;;12.60;99.90;;;;;;5050677;28;20204;-76
2022/03/29 10:24:22;;;;;;;73.47;38.13;;;12.70;99.90;;;;;;5045887;28;20583;-76
2022/03/29 10:26:51;;;;;;;70.63;37.77;;;12.70;99.90;;;;;;5056556;28;20719;-76
2022/03/29 10:29:18;;;;;;;69.57;34.77;;;14.70;99.90;;;;;;5056650;28;20579;-77
2022/03/29 10:31:51;;;;;;;62.40;35.80;;;13.10;99.90;;;;;;5044988;28;20214;-77
2022/03/29 10:34:20;;;;;;;51.17;25.30;;;13.10;99.90;;;;;;5054428;28;20236;-76
2022/03/29 10:37:12;;;;;;;51.07;26.80;;;13.10;99.90;;;;;;5041070;28;20386;-74
2022/03/29 10:39:51;;;;;;;76.43;37.47;;;13.20;99.90;;;;;;5050116;28;20216;-75
2022/03/29 10:42:41;;;;;;;80.03;39.60;;;13.20;99.90;;;;;;5045085;28;20205;-75
2022/03/29 10:45:24;;;;;;;81.40;40.33;;;13.40;99.90;;;;;;5032129;28;20214;-76
2022/03/29 10:48:09;;;;;;;77.40;39.33;;;13.50;99.90;;;;;;5041559;28;20281;-76
2022/03/29 10:50:59;;;;;;;75.53;39.87;;;13.60;99.90;;;;;;5040672;28;20219;-75
2022/03/29 10:53:29;;;;;;;67.40;36.43;;;13.60;99.90;;;;;;5053062;28;20327;-75
2022/03/29 10:56:22;;;;;;;74.73;38.67;;;13.70;99.90;;;;;;5049891;28;20662;-76
2022/03/29 10:59:12;;;;;;;74.90;38.90;;;13.70;99.90;;;;;;5046631;28;20208;-77
2022/03/29 11:01:42;;;;;;;88.50;39.40;;;13.70;99.90;;;;;;5045448;28;20217;-78
2022/03/29 11:04:20;;;;;;;65.87;38.33;;;13.60;99.90;;;;;;5048461;28;20649;-77
2022/03/29 11:07:09;;;;;;;71.87;38.60;;;13.70;99.90;;;;;;5041810;28;20472;-77
2022/03/29 11:09:39;;;;;;;72.77;40.83;;;13.90;99.90;;;;;;5029674;28;20217;-77
2022/03/29 11:12:06;;;;;;;72.57;40.00;;;14.30;99.90;;;;;;5042954;28;20232;-76
2022/03/29 11:14:39;;;;;;;71.60;41.07;;;14.70;99.90;;;;;;5039355;28;20244;-76
2022/03/29 11:17:28;;;;;;;;;;;15.10;99.90;;;;;;5050716;28;20475;-77
2022/03/29 11:19:56;;;;;;;;;;;15.70;99.90;;;;;;5043631;28;20357;-78
2022/03/29 11:22:23;;;;;;;;;;;16.20;99.90;;;;;;5047094;28;20467;-77
2022/03/29 11:24:52;;;;;;;;;;;16.20;99.90;;;;;;5051006;28;19925;-80
2022/03/29 11:27:21;;;;;;;;;;;16.40;99.90;;;;;;5047984;28;20339;-80
2022/03/29 11:29:48;;;;;;;;;;;16.50;99.90;;;;;;5038009;28;19925;-78
2022/03/29 11:32:15;;;;;;;;;;;16.60;99.90;;;;;;5043064;28;19925;-80
2022/03/29 11:34:41;;;;;;;;;;;16.70;99.90;;;;;;5041366;28;20012;-79
2022/03/29 11:37:08;;;;;;;;;;;16.50;99.90;;;;;;5043463;28;19925;-77
2022/03/29 11:39:35;;;;;;;;;;;16.20;99.90;;;;;;5049604;28;19929;-81
2022/03/29 11:42:03;;;;;;;;;;;16.20;99.90;;;;;;5052931;28;20374;-76
2022/03/29 11:44:31;;;;;;;;;;;16.30;99.90;;;;;;5048434;28;19974;-77
2022/03/29 11:46:58;;;;;;;;;;;16.00;99.90;;;;;;5041609;28;19952;-77
2022/03/29 11:49:26;;;;;;;;;;;15.90;99.90;;;;;;5051044;28;19925;-77
2022/03/29 11:52:03;;;;;;;;;;;15.10;99.90;;;;;;5045384;28;19925;-74
2022/03/29 11:54:30;;;;;;;;;;;15.00;99.90;;;;;;5037453;28;20021;-75
2022/03/29 11:56:57;;;;;;;;;;;14.90;99.90;;;;;;5044041;28;19932;-76
2022/03/29 11:59:30;;;;;;;;;;;14.70;99.90;;;;;;5055444;28;19929;-75
2022/03/29 12:02:03;;;;;;;;;;;14.60;99.90;;;;;;5049218;28;19936;-75
2022/03/29 12:04:32;;;;;;;;;;;15.30;99.90;;;;;;5052020;28;19955;-75
2022/03/29 12:06:59;;;;;;;;;;;14.80;99.90;;;;;;5046134;28;19939;-76
2022/03/29 12:09:26;;;;;;;;;;;14.80;99.90;;;;;;5046238;28;19932;-76
2022/03/29 12:11:55;;;;;;;;;;;14.90;99.90;;;;;;5054241;28;19984;-75
2022/03/29 12:14:22;;;;;;;;;;;14.90;99.90;;;;;;5043757;28;20287;-75
2022/03/29 12:16:51;;;;;;;;;;;14.90;99.90;;;;;;5034005;28;20093;-75
2022/03/29 12:19:18;;;;;;;;;;;15.00;99.90;;;;;;5052824;28;19944;-75
2022/03/29 12:21:46;;;;;;;;;;;15.10;99.90;;;;;;5051860;28;20002;-76
2022/03/29 12:24:13;;;;;;;;;;;15.20;99.90;;;;;;5038814;28;19957;-76
2022/03/29 12:26:42;;;;;;;;;;;15.10;99.90;;;;;;5042344;28;19929;-76
2022/03/29 12:29:11;;;;;;;;;;;15.00;99.90;;;;;;5039267;28;19942;-76
2022/03/29 12:31:38;;;;;;;;;;;15.10;99.90;;;;;;5045188;28;19929;-76
2022/03/29 12:34:06;;;;;;;;;;;15.90;99.90;;;;;;5053117;28;20390;-76
2022/03/29 12:36:33;;;;;;;;;;;15.90;99.90;;;;;;5050495;28;19931;-76
2022/03/29 12:39:01;;;;;;;;;;;15.90;99.90;;;;;;5044004;28;19981;-77
2022/03/29 12:41:32;;;;;;;;;;;15.70;99.90;;;;;;5036639;28;19929;-75
2022/03/29 12:43:59;;;;;;;;;;;15.90;99.90;;;;;;5048713;28;20027;-75
2022/03/29 12:46:27;;;;;;;;;;;16.10;99.90;;;;;;5045074;28;19933;-75
2022/03/29 12:48:54;;;;;;;;;;;16.80;99.90;;;;;;5058490;28;19978;-76
2022/03/29 12:51:28;;;;;;;;;;;16.40;99.90;;;;;;5054357;28;19983;-76
2022/03/29 12:53:58;;;;;;;;;;;16.50;99.90;;;;;;5063872;28;20501;-77
2022/03/29 12:56:32;;;;;;;;;;;16.40;99.90;;;;;;5050812;28;19952;-77
2022/03/29 12:58:59;;;;;;;;;;;16.30;99.90;;;;;;5049273;28;20297;-76
2022/03/29 13:01:27;;;;;;;;;;;16.10;99.90;;;;;;5042943;28;19955;-74